Time;durP1;ratioP1;P1;durP2;ratioP2;P2;SDS_P1;SDS_P2;PMS_P1;PMS_P2;Temp;Humidity;BMP_temperature;BMP_pressure;BME280_temperature;BME280_humidity;BME280_pressure;Samples;Min_cycle;Max_cycle;Signal;HPM_P1;HPM_P2
2022/06/29 00:00:50;;;;;;;;;;;;;;;;;;4973019;28;8394;-84
2022/06/29 00:03:16;;;;;;;;;;;;;;;;;;4973753;28;8509;-85
2022/06/29 00:05:41;;;;;;;;;;;;;;;;;;4972852;28;7044;-82
2022/06/29 00:08:07;;;;;;;;;;;;;;;;;;4973898;28;7027;-85
2022/06/29 00:10:34;;;;;;;;;;;;;;;;;;4972958;28;8290;-84
2022/06/29 00:12:59;;;;;;;;;;;;;;;;;;4973261;28;8364;-84
2022/06/29 00:15:25;;;;;;;;;;;;;;;;;;4973060;28;8864;-85
2022/06/29 00:17:50;;;;;;;;;;;;;;;;;;4972811;28;7014;-85
2022/06/29 00:20:16;;;;;;;;;;;;;;;;;;4973023;28;8700;-85
2022/06/29 00:22:43;;;;;;;;;;;;;;;;;;4973115;28;7034;-84
2022/06/29 00:25:10;;;;;;;;;;;;;;;;;;4972488;28;7081;-85
2022/06/29 00:27:36;;;;;;;;;;;;;;;;;;4973156;28;8399;-85
2022/06/29 00:30:02;;;;;;;;;;;;;;;;;;4972525;28;7015;-84
2022/06/29 00:32:28;;;;;;;;;;;;;;;;;;4972376;28;8289;-85
2022/06/29 00:34:54;;;;;;;;;;;;;;;;;;4972594;28;8774;-85
2022/06/29 00:37:19;;;;;;;;;;;;;;;;;;4972973;28;7023;-85
2022/06/29 00:39:45;;;;;;;;;;;;;;;;;;4972475;28;7215;-84
2022/06/29 00:42:10;;;;;;;;;;;;;;;;;;4972777;28;7004;-85
2022/06/29 00:44:36;;;;;;;;;;;;;;;;;;4972254;28;8304;-85
2022/06/29 00:47:03;;;;;;;;;;;;;;;;;;4972590;28;8606;-86
2022/06/29 00:49:30;;;;;;;;;;;;;;;;;;4972801;28;8338;-84
2022/06/29 00:52:15;;;;;;;;;;;;;;;;;;4972556;28;8874;-85
2022/06/29 00:54:44;;;;;;;;;;;;;;;;;;4972295;28;8356;-85
2022/06/29 00:57:19;;;;;;;;;;;;;;;;;;4972553;28;8254;-85
2022/06/29 00:59:47;;;;;;;;;;;;;;;;;;4972376;28;8454;-86
2022/06/29 01:02:18;;;;;;;;;;;;;;;;;;4972524;28;9090;-84
2022/06/29 01:04:44;;;;;;;;;;;;;;;;;;4972550;28;8491;-85
2022/06/29 01:07:18;;;;;;;;;;;;;;;;;;4972183;28;8426;-85
2022/06/29 01:09:44;;;;;;;;;;;;;;;;;;4972686;28;8318;-85
2022/06/29 01:12:11;;;;;;;;;;;;;;;;;;4972318;28;7442;-85
2022/06/29 01:14:36;;;;;;;;;;;;;;;;;;4972840;28;8398;-85
2022/06/29 01:17:03;;;;;;;;;;;;;;;;;;4971930;28;8631;-85
2022/06/29 01:19:28;;;;;;;;;;;;;;;;;;4972952;28;8608;-85
2022/06/29 01:21:55;;;;;;;;;;;;;;;;;;4971991;28;8648;-85
2022/06/29 01:24:22;;;;;;;;;;;;;;;;;;4972068;28;8359;-85
2022/06/29 01:26:48;;;;;;;;;;;;;;;;;;4971918;28;7130;-85
2022/06/29 01:29:15;;;;;;;;;;;;;;;;;;4971742;28;8384;-85
2022/06/29 01:31:40;;;;;;;;;;;;;;;;;;4972012;28;8383;-86
2022/06/29 01:34:06;;;;;;;;;;;;;;;;;;4971842;28;8346;-86
2022/06/29 01:36:31;;;;;;;;;;;;;;;;;;4971893;28;7147;-85
2022/06/29 01:38:56;;;;;;;;;;;;;;;;;;4971484;28;8366;-84
2022/06/29 01:41:22;;;;;;;;;;;;;;;;;;4971895;28;8440;-85
2022/06/29 01:43:48;;;;;;;;;;;;;;;;;;4971471;28;7990;-85
2022/06/29 01:46:13;;;;;;;;;;;;;;;;;;4971971;28;9167;-85
2022/06/29 01:48:39;;;;;;;;;;;;;;;;;;4971491;28;7008;-85
2022/06/29 01:51:04;;;;;;;;;;;;;;;;;;4956008;28;7023;-84
2022/06/29 01:53:30;;;;;;;;;;;;;;;;;;4976027;28;7401;-85
2022/06/29 01:55:55;;;;;;;;;;;;;;;;;;4975625;28;8407;-85
2022/06/29 01:58:21;;;;;;;;;;;;;;;;;;4975362;28;7010;-84
2022/06/29 02:00:47;;;;;;;;;;;;;;;;;;4959817;28;8349;-84
2022/06/29 02:03:12;;;;;;;;;;;;;;;;;;4975612;28;8437;-84
2022/06/29 02:05:38;;;;;;;;;;;;;;;;;;4975439;28;7193;-84
2022/06/29 02:08:03;;;;;;;;;;;;;;;;;;4975494;28;7253;-84
2022/06/29 02:10:29;;;;;;;;;;;;;;;;;;4975351;28;7234;-84
2022/06/29 02:12:55;;;;;;;;;;;;;;;;;;4975680;28;8373;-85
2022/06/29 02:15:21;;;;;;;;;;;;;;;;;;4975921;28;8393;-84
2022/06/29 02:17:47;;;;;;;;;;;;;;;;;;4975008;28;7059;-84
2022/06/29 02:20:13;;;;;;;;;;;;;;;;;;4974943;28;8385;-84
2022/06/29 02:22:40;;;;;;;;;;;;;;;;;;4975662;28;7049;-84
2022/06/29 02:25:07;;;;;;;;;;;;;;;;;;4974832;28;8865;-84
2022/06/29 02:27:32;;;;;;;;;;;;;;;;;;4974913;28;6843;-84
2022/06/29 02:29:58;;;;;;;;;;;;;;;;;;4975224;28;7370;-85
2022/06/29 02:35:07;;;;;;;;;;;;;;;;;;4959826;28;6878;-85
2022/06/29 02:37:33;;;;;;;;;;;;;;;;;;4974879;28;6815;-85
2022/06/29 02:39:58;;;;;;;;;;;;;;;;;;4974891;28;7130;-84
2022/06/29 02:42:24;;;;;;;;;;;;;;;;;;4974957;28;7153;-85
2022/06/29 02:44:49;;;;;;;;;;;;;;;;;;4974644;28;7049;-85
2022/06/29 02:47:16;;;;;;;;;;;;;;;;;;4974513;28;8419;-84
2022/06/29 02:49:42;;;;;;;;;;;;;;;;;;4974873;28;7164;-85
2022/06/29 02:52:08;;;;;;;;;;;;;;;;;;4975418;28;8485;-85
2022/06/29 02:54:33;;;;;;;;;;;;;;;;;;4974514;28;7398;-84
2022/06/29 02:56:59;;;;;;;;;;;;;;;;;;4974712;28;8626;-85
2022/06/29 02:59:24;;;;;;;;;;;;;;;;;;4974718;28;8387;-85
2022/06/29 03:01:49;;;;;;;;;;;;;;;;;;4974270;28;8402;-84
2022/06/29 03:04:15;;;;;;;;;;;;;;;;;;4974304;28;8390;-84
2022/06/29 03:06:41;;;;;;;;;;;;;;;;;;4974270;28;7205;-84
2022/06/29 03:09:07;;;;;;;;;;;;;;;;;;4974443;28;8844;-85
2022/06/29 03:11:33;;;;;;;;;;;;;;;;;;4974162;28;7322;-83
2022/06/29 03:13:58;;;;;;;;;;;;;;;;;;4974241;28;7584;-84
2022/06/29 03:16:24;;;;;;;;;;;;;;;;;;4974062;28;7026;-84
2022/06/29 03:18:50;;;;;;;;;;;;;;;;;;4974689;28;7397;-85
2022/06/29 03:21:16;;;;;;;;;;;;;;;;;;4974166;28;7158;-84
2022/06/29 03:23:42;;;;;;;;;;;;;;;;;;4974532;28;8409;-85
2022/06/29 03:26:08;;;;;;;;;;;;;;;;;;4974140;28;7157;-84
2022/06/29 03:28:33;;;;;;;;;;;;;;;;;;4972806;28;7016;-84
2022/06/29 03:30:59;;;;;;;;;;;;;;;;;;4972342;28;8692;-84
2022/06/29 03:33:24;;;;;;;;;;;;;;;;;;4956331;28;7135;-84
2022/06/29 03:35:50;;;;;;;;;;;;;;;;;;4972447;28;7402;-84
2022/06/29 03:38:15;;;;;;;;;;;;;;;;;;4956247;28;8393;-85
2022/06/29 03:40:41;;;;;;;;;;;;;;;;;;4956550;28;8452;-84
2022/06/29 03:43:06;;;;;;;;;;;;;;;;;;4972610;28;8596;-85
2022/06/29 03:45:32;;;;;;;;;;;;;;;;;;4956102;28;8376;-84
2022/06/29 03:47:58;;;;;;;;;;;;;;;;;;4972066;28;8475;-85
2022/06/29 03:50:24;;;;;;;;;;;;;;;;;;4956377;28;8360;-85
2022/06/29 03:52:49;;;;;;;;;;;;;;;;;;4971997;28;8295;-83
2022/06/29 03:55:15;;;;;;;;;;;;;;;;;;4955905;28;8418;-84
2022/06/29 03:57:41;;;;;;;;;;;;;;;;;;4955976;28;8414;-84
2022/06/29 04:00:07;;;;;;;;;;;;;;;;;;4972159;28;7115;-84
2022/06/29 04:02:33;;;;;;;;;;;;;;;;;;4955897;28;8664;-84
2022/06/29 04:04:58;;;;;;;;;;;;;;;;;;4955975;28;8762;-84
2022/06/29 04:07:24;;;;;;;;;;;;;;;;;;4971860;28;7244;-85
2022/06/29 04:09:50;;;;;;;;;;;;;;;;;;4971626;28;7172;-83
2022/06/29 04:12:16;;;;;;;;;;;;;;;;;;4955384;28;7157;-86
2022/06/29 04:14:42;;;;;;;;;;;;;;;;;;4971914;28;7161;-85
2022/06/29 04:17:07;;;;;;;;;;;;;;;;;;4956659;28;8463;-85
2022/06/29 04:19:33;;;;;;;;;;;;;;;;;;4972692;28;8286;-85
2022/06/29 04:21:58;;;;;;;;;;;;;;;;;;4972385;28;8359;-85
2022/06/29 04:24:24;;;;;;;;;;;;;;;;;;4956616;28;8511;-84
2022/06/29 04:26:49;;;;;;;;;;;;;;;;;;4972790;28;7154;-85
2022/06/29 04:29:15;;;;;;;;;;;;;;;;;;4972419;28;8446;-84
2022/06/29 04:31:40;;;;;;;;;;;;;;;;;;4972488;28;8661;-85
2022/06/29 04:34:07;;;;;;;;;;;;;;;;;;4972468;28;8357;-85
2022/06/29 04:36:33;;;;;;;;;;;;;;;;;;4956167;28;8683;-83
2022/06/29 04:38:58;;;;;;;;;;;;;;;;;;4956371;28;8622;-85
2022/06/29 04:41:24;;;;;;;;;;;;;;;;;;4972173;28;8367;-85
2022/06/29 04:43:49;;;;;;;;;;;;;;;;;;4956340;28;8451;-84
2022/06/29 04:46:24;;;;;;;;;;;;;;;;;;4955818;28;8460;-84
2022/06/29 04:48:53;;;;;;;;;;;;;;;;;;4956202;28;8466;-85
2022/06/29 04:51:20;;;;;;;;;;;;;;;;;;4953547;28;7059;-85
2022/06/29 04:53:46;;;;;;;;;;;;;;;;;;4955913;28;8329;-85
2022/06/29 04:56:12;;;;;;;;;;;;;;;;;;4971894;28;7141;-84
2022/06/29 04:58:37;;;;;;;;;;;;;;;;;;4955774;28;7197;-84
2022/06/29 05:01:03;;;;;;;;;;;;;;;;;;4972202;28;7215;-85
2022/06/29 05:03:28;;;;;;;;;;;;;;;;;;4955949;28;7242;-84
2022/06/29 05:05:54;;;;;;;;;;;;;;;;;;4971952;28;8454;-85
2022/06/29 05:08:19;;;;;;;;;;;;;;;;;;4971840;28;8516;-85
2022/06/29 05:10:45;;;;;;;;;;;;;;;;;;4955832;28;8615;-86
2022/06/29 05:13:11;;;;;;;;;;;;;;;;;;4971145;28;8504;-86
2022/06/29 05:15:39;;;;;;;;;;;;;;;;;;4955698;28;7187;-85
2022/06/29 05:18:05;;;;;;;;;;;;;;;;;;4955358;28;7178;-86
2022/06/29 05:20:30;;;;;;;;;;;;;;;;;;4968803;28;8708;-83
2022/06/29 05:22:56;;;;;;;;;;;;;;;;;;4954325;28;8687;-85
2022/06/29 05:25:22;;;;;;;;;;;;;;;;;;4953459;28;7168;-86
2022/06/29 05:27:47;;;;;;;;;;;;;;;;;;4954221;28;8427;-81
2022/06/29 05:30:13;;;;;;;;;;;;;;;;;;4955005;28;8606;-80
2022/06/29 05:32:38;;;;;;;;;;;;;;;;;;4954270;28;8471;-84
2022/06/29 05:35:04;;;;;;;;;;;;;;;;;;4954337;28;8363;-83
2022/06/29 05:37:30;;;;;;;;;;;;;;;;;;4954750;28;7171;-84
2022/06/29 05:39:56;;;;;;;;;;;;;;;;;;4955174;28;7413;-84
2022/06/29 05:42:21;;;;;;;;;;;;;;;;;;4954533;28;8694;-84
2022/06/29 05:44:47;;;;;;;;;;;;;;;;;;4954602;28;8482;-85
2022/06/29 05:47:14;;;;;;;;;;;;;;;;;;4954364;28;7007;-81
2022/06/29 05:49:40;;;;;;;;;;;;;;;;;;4954755;29;8731;-82
2022/06/29 05:52:07;;;;;;;;;;;;;;;;;;4954402;29;8327;-81
2022/06/29 05:54:33;;;;;;;;;;;;;;;;;;4954273;29;7270;-82
2022/06/29 05:56:59;;;;;;;;;;;;;;;;;;4954408;29;8355;-82
2022/06/29 05:59:24;;;;;;;;;;;;;;;;;;4954266;29;7413;-81
2022/06/29 06:01:50;;;;;;;;;;;;;;;;;;4954747;29;8708;-84
2022/06/29 06:04:15;;;;;;;;;;;;;;;;;;4954631;29;8781;-82
2022/06/29 06:06:41;;;;;;;;;;;;;;;;;;4927759;28;12352;-84
2022/06/29 06:09:06;;;;;;;;;;;;;;;;;;4954639;29;8405;-84
2022/06/29 06:11:32;;;;;;;;;;;;;;;;;;4953864;29;8723;-84
2022/06/29 06:13:57;;;;;;;;;;;;;;;;;;4953465;29;8578;-85
2022/06/29 06:16:23;;;;;;;;;;;;;;;;;;4955210;29;8543;-85
2022/06/29 06:18:48;;;;;;;;;;;;;;;;;;4954516;29;7098;-83
2022/06/29 06:21:15;;;;;;;;;;;;;;;;;;4962987;28;8695;-85
2022/06/29 06:23:40;;;;;;;;;;;;;;;;;;4973530;28;9025;-86
2022/06/29 06:26:06;;;;;;;;;;;;;;;;;;4973902;28;7145;-86
2022/06/29 06:28:31;;;;;;;;;;;;;;;;;;4973277;28;8786;-86
2022/06/29 06:30:57;;;;;;;;;;;;;;;;;;4973946;28;8302;-85
2022/06/29 06:33:22;;;;;;;;;;;;;;;;;;4973285;28;7251;-86
2022/06/29 06:35:49;;;;;;;;;;;;;;;;;;4973316;28;9172;-83
2022/06/29 06:38:15;;;;;;;;;;;;;;;;;;4976131;28;8416;-85
2022/06/29 06:43:25;;;;;;;;;;;;;;;;;;4978103;28;6978;-85
2022/06/29 06:45:50;;;;;;;;;;;;;;;;;;4977406;28;8666;-86
2022/06/29 06:48:16;;;;;;;;;;;;;;;;;;4977387;28;8689;-86
2022/06/29 06:50:41;;;;;;;;;;;;;;;;;;4976762;28;7427;-86
2022/06/29 06:53:07;;;;;;;;;;;;;;;;;;4976621;28;8473;-85
2022/06/29 06:55:32;;;;;;;;;;;;;;;;;;4977489;28;8493;-86
2022/06/29 06:57:58;;;;;;;;;;;;;;;;;;4977329;28;8476;-85
2022/06/29 07:00:23;;;;;;;;;;;;;;;;;;4977835;28;7251;-86
2022/06/29 07:02:49;;;;;;;;;;;;;;;;;;4977635;28;8421;-85
2022/06/29 07:05:14;;;;;;;;;;;;;;;;;;4976211;28;7138;-85
2022/06/29 07:07:40;;;;;;;;;;;;;;;;;;4976468;28;7055;-86
2022/06/29 07:10:05;;;;;;;;;;;;;;;;;;4976910;28;8699;-85
2022/06/29 07:12:31;;;;;;;;;;;;;;;;;;4976918;28;8419;-87
2022/06/29 07:14:56;;;;;;;;;;;;;;;;;;4976342;28;8358;-84
2022/06/29 07:17:22;;;;;;;;;;;;;;;;;;4975482;28;8512;-85
2022/06/29 07:19:47;;;;;;;;;;;;;;;;;;4957028;28;8528;-86
2022/06/29 07:22:13;;;;;;;;;;;;;;;;;;4956088;28;8428;-87
2022/06/29 07:24:38;;;;;;;;;;;;;;;;;;4956807;28;8338;-87
2022/06/29 07:27:04;;;;;;;;;;;;;;;;;;4956384;28;8445;-86
2022/06/29 07:29:29;;;;;;;;;;;;;;;;;;4956778;28;7260;-84
2022/06/29 07:31:55;;;;;;;;;;;;;;;;;;4955800;28;8649;-84
2022/06/29 07:34:20;;;;;;;;;;;;;;;;;;4956147;28;8496;-86
2022/06/29 07:36:46;;;;;;;;;;;;;;;;;;4956406;28;7045;-86
2022/06/29 07:39:11;;;;;;;;;;;;;;;;;;4956546;28;8865;-87
2022/06/29 07:41:37;;;;;;;;;;;;;;;;;;4957636;28;7184;-86
2022/06/29 07:44:03;;;;;;;;;;;;;;;;;;4956791;28;8728;-87
2022/06/29 07:46:29;;;;;;;;;;;;;;;;;;4958515;28;8709;-83
2022/06/29 07:48:54;;;;;;;;;;;;;;;;;;4956851;28;9156;-85
2022/06/29 07:51:20;;;;;;;;;;;;;;;;;;4957889;28;7118;-85
2022/06/29 07:53:45;;;;;;;;;;;;;;;;;;4957138;28;8507;-84
2022/06/29 07:56:11;;;;;;;;;;;;;;;;;;4954285;28;8416;-86
2022/06/29 07:58:36;;;;;;;;;;;;;;;;;;4956664;28;7062;-86
2022/06/29 08:01:02;;;;;;;;;;;;;;;;;;4956231;28;8349;-86
2022/06/29 08:03:27;;;;;;;;;;;;;;;;;;4956024;28;8416;-86
2022/06/29 08:05:53;;;;;;;;;;;;;;;;;;4955896;28;8411;-86
2022/06/29 08:08:18;;;;;;;;;;;;;;;;;;4956551;28;8661;-87
2022/06/29 08:10:44;;;;;;;;;;;;;;;;;;4955800;28;8428;-86
2022/06/29 08:13:09;;;;;;;;;;;;;;;;;;4955971;28;8810;-86
2022/06/29 08:15:35;;;;;;;;;;;;;;;;;;4955687;28;8440;-85
2022/06/29 08:18:01;;;;;;;;;;;;;;;;;;4956782;28;8815;-87
2022/06/29 08:20:28;;;;;;;;;;;;;;;;;;4956910;28;7197;-86
2022/06/29 08:22:54;;;;;;;;;;;;;;;;;;4957046;28;7463;-85
2022/06/29 08:25:19;;;;;;;;;;;;;;;;;;4956654;28;8482;-86
2022/06/29 08:27:51;;;;;;;;;;;;;;;;;;4956620;28;7193;-88
2022/06/29 08:30:17;;;;;;;;;;;;;;;;;;4956580;28;8821;-86
2022/06/29 08:32:44;;;;;;;;;;;;;;;;;;4956266;28;8818;-86
2022/06/29 08:35:11;;;;;;;;;;;;;;;;;;4956413;28;8551;-86
2022/06/29 08:37:38;;;;;;;;;;;;;;;;;;4952329;28;7028;-86
2022/06/29 08:40:08;;;;;;;;;;;;;;;;;;4956453;28;8514;-85
2022/06/29 08:42:36;;;;;;;;;;;;;;;;;;4956083;28;8441;-86
2022/06/29 08:45:02;;;;;;;;;;;;;;;;;;4956266;28;8438;-87
2022/06/29 08:47:27;;;;;;;;;;;;;;;;;;4955363;28;7216;-87
2022/06/29 08:49:53;;;;;;;;;;;;;;;;;;4955907;28;8269;-86
2022/06/29 08:52:21;;;;;;;;;;;;;;;;;;4955652;28;8481;-86
2022/06/29 08:54:48;;;;;;;;;;;;;;;;;;4947933;28;8460;-85
2022/06/29 08:57:15;;;;;;;;;;;;;;;;;;4949890;28;7456;-84
2022/06/29 08:59:41;;;;;;;;;;;;;;;;;;4956600;28;8351;-85
2022/06/29 09:02:06;;;;;;;;;;;;;;;;;;4952779;28;7216;-84
2022/06/29 09:04:32;;;;;;;;;;;;;;;;;;4953092;28;8415;-85
2022/06/29 09:06:57;;;;;;;;;;;;;;;;;;4952640;28;8490;-86
2022/06/29 09:09:24;;;;;;;;;;;;;;;;;;4952830;28;8467;-87
2022/06/29 09:11:50;;;;;;;;;;;;;;;;;;4953184;28;8773;-86
2022/06/29 09:14:17;;;;;;;;;;;;;;;;;;4952120;28;7198;-85
2022/06/29 09:16:49;;;;;;;;;;;;;;;;;;4952678;28;8827;-86
2022/06/29 09:19:15;;;;;;;;;;;;;;;;;;4969268;28;8444;-87
2022/06/29 09:21:48;;;;;;;;;;;;;;;;;;4953324;28;8451;-85
2022/06/29 09:24:14;;;;;;;;;;;;;;;;;;4952305;28;7390;-85
2022/06/29 09:26:40;;;;;;;;;;;;;;;;;;4952937;28;9032;-84
2022/06/29 09:29:26;;;;;;;;;;;;;;;;;;4953372;28;8433;-85
2022/06/29 09:32:00;;;;;;;;;;;;;;;;;;4952147;28;7090;-84
2022/06/29 09:34:26;;;;;;;;;;;;;;;;;;4952379;28;8653;-86
2022/06/29 09:36:55;;;;;;;;;;;;;;;;;;4953201;28;8484;-86
2022/06/29 09:39:36;;;;;;;;;;;;;;;;;;4952504;28;7089;-85
2022/06/29 09:42:02;;;;;;;;;;;;;;;;;;4953818;28;7223;-86
2022/06/29 09:44:28;;;;;;;;;;;;;;;;;;4954167;28;8851;-85
2022/06/29 09:46:55;;;;;;;;;;;;;;;;;;4953505;28;8718;-86
2022/06/29 09:49:25;;;;;;;;;;;;;;;;;;4954191;29;8506;-86
2022/06/29 09:51:53;;;;;;;;;;;;;;;;;;4954473;29;7274;-85
2022/06/29 09:54:22;;;;;;;;;;;;;;;;;;4953384;29;7277;-86
2022/06/29 09:56:49;;;;;;;;;;;;;;;;;;4954348;29;8472;-85
2022/06/29 10:02:34;;;;;;;;;;;;;;;;;;4955162;29;7006;-86
2022/06/29 10:05:04;;;;;;;;;;;;;;;;;;4954029;29;8634;-86
2022/06/29 10:07:31;;;;;;;;;;;;;;;;;;4953531;29;8492;-84
2022/06/29 10:09:58;;;;;;;;;;;;;;;;;;4953655;29;8439;-87
2022/06/29 10:15:30;;;;;;;;;;;;;;;;;;4958718;28;6820;-86
2022/06/29 10:18:05;;;;;;;;;;;;;;;;;;4973642;28;9020;-86
2022/06/29 10:20:57;;;;;;;;;;;;;;;;;;4958282;28;8503;-86
2022/06/29 10:23:41;;;;;;;;;;;;;;;;;;4956375;28;8482;-86
2022/06/29 10:26:35;;;;;;;;;;;;;;;;;;4957390;28;8452;-84
2022/06/29 10:29:10;;;;;;;;;;;;;;;;;;4957642;28;8775;-85
2022/06/29 10:31:51;;;;;;;;;;;;;;;;;;4973642;28;8895;-85
2022/06/29 10:34:32;;;;;;;;;;;;;;;;;;4972828;28;8439;-85
2022/06/29 10:36:59;;;;;;;;;;;;;;;;;;4973892;28;9124;-85
2022/06/29 10:39:25;;;;;;;;;;;;;;;;;;4958393;28;8676;-85
2022/06/29 10:44:53;;;;;;;;;;;;;;;;;;4958553;28;6837;-84
2022/06/29 10:47:21;;;;;;;;;;;;;;;;;;4957161;28;8393;-86
2022/06/29 10:49:47;;;;;;;;;;;;;;;;;;4957639;28;8324;-86
2022/06/29 10:52:15;;;;;;;;;;;;;;;;;;4956828;28;8471;-86
2022/06/29 10:54:41;;;;;;;;;;;;;;;;;;4956618;28;8482;-86
2022/06/29 10:57:07;;;;;;;;;;;;;;;;;;4957011;28;8423;-85
2022/06/29 10:59:32;;;;;;;;;;;;;;;;;;4956982;28;8433;-86
2022/06/29 11:02:13;;;;;;;;;;;;;;;;;;4973623;28;8845;-87
2022/06/29 11:04:39;;;;;;;;;;;;;;;;;;4957177;28;8892;-85
2022/06/29 11:12:35;;;;;;;;;;;;;;;;;;4958367;28;6833;-87
2022/06/29 11:17:48;;;;;;;;;;;;;;;;;;4957479;28;6836;-87
2022/06/29 11:20:18;;;;;;;;;;;;;;;;;;4957049;28;7078;-87
2022/06/29 11:22:50;;;;;;;;;;;;;;;;;;4957091;28;8777;-86
2022/06/29 11:25:16;;;;;;;;;;;;;;;;;;4955337;28;8433;-87
2022/06/29 11:27:41;;;;;;;;;;;;;;;;;;4956674;28;8411;-87
2022/06/29 11:30:11;;;;;;;;;;;;;;;;;;4956246;28;7209;-87
2022/06/29 11:32:41;;;;;;;;;;;;;;;;;;4956655;28;8412;-87
2022/06/29 11:35:08;;;;;;;;;;;;;;;;;;4956807;28;8728;-87
2022/06/29 11:37:33;;;;;;;;;;;;;;;;;;4956767;28;8870;-87
2022/06/29 11:39:59;;;;;;;;;;;;;;;;;;4957532;28;8458;-85
2022/06/29 11:45:19;;;;;;;;;;;;;;;;;;4958767;28;6837;-85
2022/06/29 11:47:55;;;;;;;;;;;;;;;;;;4956670;28;8789;-87
2022/06/29 11:50:21;;;;;;;;;;;;;;;;;;4957066;28;8398;-87
2022/06/29 11:52:50;;;;;;;;;;;;;;;;;;4956757;28;7119;-85
2022/06/29 11:55:16;;;;;;;;;;;;;;;;;;4956117;28;8470;-87
2022/06/29 11:57:41;;;;;;;;;;;;;;;;;;4957125;28;8719;-86
2022/06/29 12:00:08;;;;;;;;;;;;;;;;;;4956779;28;8492;-88
2022/06/29 12:02:34;;;;;;;;;;;;;;;;;;4956248;28;8663;-87
2022/06/29 12:05:01;;;;;;;;;;;;;;;;;;4955999;28;8460;-88
2022/06/29 12:07:28;;;;;;;;;;;;;;;;;;4955820;28;8529;-88
2022/06/29 12:09:55;;;;;;;;;;;;;;;;;;4956331;28;9235;-87
2022/06/29 12:12:21;;;;;;;;;;;;;;;;;;4956907;28;8387;-87
2022/06/29 12:14:47;;;;;;;;;;;;;;;;;;4956195;28;8449;-85
2022/06/29 12:17:13;;;;;;;;;;;;;;;;;;4955897;28;8462;-86
2022/06/29 12:19:40;;;;;;;;;;;;;;;;;;4955427;28;8562;-86
2022/06/29 12:22:06;;;;;;;;;;;;;;;;;;4955312;28;8537;-87
2022/06/29 12:24:31;;;;;;;;;;;;;;;;;;4955438;28;8469;-87
2022/06/29 12:26:57;;;;;;;;;;;;;;;;;;4952580;28;8494;-86
2022/06/29 12:29:22;;;;;;;;;;;;;;;;;;4936142;29;8790;-86
2022/06/29 12:31:48;;;;;;;;;;;;;;;;;;4936480;29;8792;-88
2022/06/29 12:34:15;;;;;;;;;;;;;;;;;;4935952;29;8439;-87
2022/06/29 12:36:40;;;;;;;;;;;;;;;;;;4939072;28;8608;-85
2022/06/29 12:39:07;;;;;;;;;;;;;;;;;;4954983;28;8539;-87
2022/06/29 12:41:33;;;;;;;;;;;;;;;;;;4955561;28;8831;-87
2022/06/29 12:43:59;;;;;;;;;;;;;;;;;;4955009;28;8655;-84
2022/06/29 12:46:27;;;;;;;;;;;;;;;;;;4955396;28;8465;-85
2022/06/29 12:48:53;;;;;;;;;;;;;;;;;;4955264;28;8878;-87
2022/06/29 12:51:19;;;;;;;;;;;;;;;;;;4954335;28;8804;-87
2022/06/29 12:53:44;;;;;;;;;;;;;;;;;;4954834;28;8348;-85
2022/06/29 12:56:10;;;;;;;;;;;;;;;;;;4955562;28;8966;-86
2022/06/29 12:58:36;;;;;;;;;;;;;;;;;;4954680;28;7332;-87
2022/06/29 13:01:02;;;;;;;;;;;;;;;;;;4954846;28;8459;-86
2022/06/29 13:03:27;;;;;;;;;;;;;;;;;;4954703;28;8389;-88
2022/06/29 13:05:53;;;;;;;;;;;;;;;;;;4954496;28;8459;-87
2022/06/29 13:08:18;;;;;;;;;;;;;;;;;;4955215;28;8464;-88
2022/06/29 13:10:44;;;;;;;;;;;;;;;;;;4955581;28;8389;-85
2022/06/29 13:13:09;;;;;;;;;;;;;;;;;;4954169;28;8734;-88
2022/06/29 13:15:36;;;;;;;;;;;;;;;;;;4955634;28;9073;-88
2022/06/29 13:18:04;;;;;;;;;;;;;;;;;;4955034;28;8484;-87
2022/06/29 13:20:30;;;;;;;;;;;;;;;;;;4955694;28;8462;-85
2022/06/29 13:22:55;;;;;;;;;;;;;;;;;;4955807;28;7083;-86
2022/06/29 13:25:21;;;;;;;;;;;;;;;;;;4955587;28;8518;-87
2022/06/29 13:27:47;;;;;;;;;;;;;;;;;;4957955;28;8495;-83
2022/06/29 13:30:13;;;;;;;;;;;;;;;;;;4956818;28;8390;-83
2022/06/29 13:32:39;;;;;;;;;;;;;;;;;;4954339;28;7168;-83
2022/06/29 13:35:06;;;;;;;;;;;;;;;;;;4955812;28;8736;-88
2022/06/29 13:37:32;;;;;;;;;;;;;;;;;;4956244;28;7288;-89
2022/06/29 13:39:58;;;;;;;;;;;;;;;;;;4956593;28;8386;-88
2022/06/29 13:42:23;;;;;;;;;;;;;;;;;;4955968;28;8766;-87
2022/06/29 13:44:49;;;;;;;;;;;;;;;;;;4956655;28;8336;-89
2022/06/29 13:47:14;;;;;;;;;;;;;;;;;;4954306;28;7389;-89
2022/06/29 13:49:40;;;;;;;;;;;;;;;;;;4955434;29;8517;-87
2022/06/29 13:52:06;;;;;;;;;;;;;;;;;;4956235;29;8815;-88
2022/06/29 13:54:31;;;;;;;;;;;;;;;;;;4955583;29;8461;-87
2022/06/29 13:56:57;;;;;;;;;;;;;;;;;;4955010;29;8789;-86
2022/06/29 13:59:22;;;;;;;;;;;;;;;;;;4955189;29;8470;-89
2022/06/29 14:01:48;;;;;;;;;;;;;;;;;;4955717;29;7112;-87
2022/06/29 14:04:14;;;;;;;;;;;;;;;;;;4955417;29;7210;-88
2022/06/29 14:06:40;;;;;;;;;;;;;;;;;;4954908;29;9135;-88
2022/06/29 14:09:06;;;;;;;;;;;;;;;;;;4954550;29;8695;-85
2022/06/29 14:11:33;;;;;;;;;;;;;;;;;;4954940;29;9030;-87
2022/06/29 14:13:58;;;;;;;;;;;;;;;;;;4955264;29;8962;-87
2022/06/29 14:16:23;;;;;;;;;;;;;;;;;;4955135;29;8602;-87
2022/06/29 14:18:49;;;;;;;;;;;;;;;;;;4955681;29;7264;-87
2022/06/29 14:21:14;;;;;;;;;;;;;;;;;;4955561;29;8439;-88
2022/06/29 14:23:40;;;;;;;;;;;;;;;;;;4955467;28;8475;-88
2022/06/29 14:26:05;;;;;;;;;;;;;;;;;;4955198;29;8486;-88
2022/06/29 14:28:31;;;;;;;;;;;;;;;;;;4959155;29;8421;-85
2022/06/29 14:30:56;;;;;;;;;;;;;;;;;;4959913;29;8473;-86
2022/06/29 14:33:22;;;;;;;;;;;;;;;;;;4956504;29;8835;-88
2022/06/29 14:35:48;;;;;;;;;;;;;;;;;;4954512;29;9188;-87
2022/06/29 14:38:13;;;;;;;;;;;;;;;;;;4954501;29;8461;-84
2022/06/29 14:40:39;;;;;;;;;;;;;;;;;;4953847;29;8467;-87
2022/06/29 14:43:04;;;;;;;;;;;;;;;;;;4954760;29;7139;-87
2022/06/29 14:45:30;;;;;;;;;;;;;;;;;;4956287;29;7213;-85
2022/06/29 14:47:55;;;;;;;;;;;;;;;;;;4956043;28;8379;-87
2022/06/29 14:50:22;;;;;;;;;;;;;;;;;;4955492;29;8628;-88
2022/06/29 14:52:51;;;;;;;;;;;;;;;;;;4973710;28;7077;-88
2022/06/29 14:55:17;;;;;;;;;;;;;;;;;;4954585;29;8548;-88
2022/06/29 14:57:44;;;;;;;;;;;;;;;;;;4954171;28;7082;-88
2022/06/29 15:00:11;;;;;;;;;;;;;;;;;;4957059;28;8954;-87
2022/06/29 15:02:39;;;;;;;;;;;;;;;;;;4953595;28;8889;-87
2022/06/29 15:05:05;;;;;;;;;;;;;;;;;;4951897;28;8528;-88
2022/06/29 15:07:31;;;;;;;;;;;;;;;;;;4958723;28;8533;-88
2022/06/29 15:09:57;;;;;;;;;;;;;;;;;;4956195;28;6857;-88
2022/06/29 15:12:22;;;;;;;;;;;;;;;;;;4956563;28;7272;-87
2022/06/29 15:14:48;;;;;;;;;;;;;;;;;;4956258;28;8429;-88
2022/06/29 15:17:13;;;;;;;;;;;;;;;;;;4955116;28;9437;-87
2022/06/29 15:19:39;;;;;;;;;;;;;;;;;;4955723;28;9381;-86
2022/06/29 15:22:05;;;;;;;;;;;;;;;;;;4956201;28;8876;-88
2022/06/29 15:24:30;;;;;;;;;;;;;;;;;;4956386;28;8768;-88
2022/06/29 15:26:56;;;;;;;;;;;;;;;;;;4956157;28;7408;-88
2022/06/29 15:29:21;;;;;;;;;;;;;;;;;;4956153;28;7260;-88
2022/06/29 15:31:47;;;;;;;;;;;;;;;;;;4954651;28;8573;-87
2022/06/29 15:39:42;;;;;;;;;;;;;;;;;;4957023;28;6859;-88
2022/06/29 15:42:08;;;;;;;;;;;;;;;;;;4955110;28;8547;-88
2022/06/29 15:44:35;;;;;;;;;;;;;;;;;;4956123;28;8797;-88
2022/06/29 15:47:00;;;;;;;;;;;;;;;;;;4956481;28;8604;-79
2022/06/29 15:49:25;;;;;;;;;;;;;;;;;;4956829;28;8533;-90
2022/06/29 15:51:51;;;;;;;;;;;;;;;;;;4957108;28;8527;-86
2022/06/29 15:57:02;;;;;;;;;;;;;;;;;;4959225;28;6880;-88
2022/06/29 15:59:27;;;;;;;;;;;;;;;;;;4956543;28;8557;-91
2022/06/29 16:01:53;;;;;;;;;;;;;;;;;;4955289;28;8788;-82
2022/06/29 16:04:18;;;;;;;;;;;;;;;;;;4954579;28;7250;-86
2022/06/29 16:06:44;;;;;;;;;;;;;;;;;;4956119;28;8693;-87
2022/06/29 16:09:09;;;;;;;;;;;;;;;;;;4956826;28;8685;-86
2022/06/29 16:14:20;;;;;;;;;;;;;;;;;;4957358;28;6853;-87
2022/06/29 16:16:45;;;;;;;;;;;;;;;;;;4956376;28;8675;-88
2022/06/29 16:19:11;;;;;;;;;;;;;;;;;;4956934;28;8542;-89
2022/06/29 16:21:37;;;;;;;;;;;;;;;;;;4956313;28;8397;-89
2022/06/29 16:24:03;;;;;;;;;;;;;;;;;;4955992;28;8508;-88
2022/06/29 16:26:29;;;;;;;;;;;;;;;;;;4955800;28;7117;-88
2022/06/29 16:28:54;;;;;;;;;;;;;;;;;;4956250;28;8457;-88
2022/06/29 16:31:20;;;;;;;;;;;;;;;;;;4956482;28;8587;-87
2022/06/29 16:33:48;;;;;;;;;;;;;;;;;;4955972;28;8381;-88
2022/06/29 16:36:14;;;;;;;;;;;;;;;;;;4956154;28;8478;-87
2022/06/29 16:38:39;;;;;;;;;;;;;;;;;;4956006;28;7205;-86
2022/06/29 16:41:05;;;;;;;;;;;;;;;;;;4956363;28;8550;-86
2022/06/29 16:43:30;;;;;;;;;;;;;;;;;;4956220;28;8536;-87
2022/06/29 16:45:56;;;;;;;;;;;;;;;;;;4956011;28;8535;-87
2022/06/29 16:48:21;;;;;;;;;;;;;;;;;;4955974;28;9365;-87
2022/06/29 16:50:47;;;;;;;;;;;;;;;;;;4955774;28;8455;-88
2022/06/29 16:53:13;;;;;;;;;;;;;;;;;;4955794;28;8582;-87
2022/06/29 16:55:39;;;;;;;;;;;;;;;;;;4955835;28;8493;-88
2022/06/29 16:58:05;;;;;;;;;;;;;;;;;;4955990;28;8478;-87
2022/06/29 17:00:30;;;;;;;;;;;;;;;;;;4955819;28;8608;-88
2022/06/29 17:02:56;;;;;;;;;;;;;;;;;;4955819;28;8536;-85
2022/06/29 17:05:21;;;;;;;;;;;;;;;;;;4955632;28;8437;-88
2022/06/29 17:07:47;;;;;;;;;;;;;;;;;;4955771;28;8524;-86
2022/06/29 17:10:13;;;;;;;;;;;;;;;;;;4955616;28;8746;-87
2022/06/29 17:12:38;;;;;;;;;;;;;;;;;;4955739;28;7184;-87
2022/06/29 17:15:05;;;;;;;;;;;;;;;;;;4955789;28;8858;-86
2022/06/29 17:17:30;;;;;;;;;;;;;;;;;;4955414;28;7233;-87
2022/06/29 17:19:56;;;;;;;;;;;;;;;;;;4955699;28;8477;-87
2022/06/29 17:22:22;;;;;;;;;;;;;;;;;;4955430;28;8476;-89
2022/06/29 17:24:47;;;;;;;;;;;;;;;;;;4955537;28;8454;-87
2022/06/29 17:27:13;;;;;;;;;;;;;;;;;;4955520;28;7397;-82
2022/06/29 17:29:38;;;;;;;;;;;;;;;;;;4955126;28;8545;-87
2022/06/29 17:32:04;;;;;;;;;;;;;;;;;;4954523;28;8489;-88
2022/06/29 17:34:29;;;;;;;;;;;;;;;;;;4955512;28;8558;-87